Time;durP1;ratioP1;P1;durP2;ratioP2;P2;SDS_P1;SDS_P2;PMS_P1;PMS_P2;Temp;Humidity;BMP_temperature;BMP_pressure;BME280_temperature;BME280_humidity;BME280_pressure;Samples;Min_cycle;Max_cycle;Signal;HPM_P1;HPM_P2
2024/01/11 00:01:58;;;;;;;33.23;23.10;;;;;;;-2.91;100.00;101384.09;5054669;28;20194;-78
2024/01/11 00:04:24;;;;;;;33.43;24.00;;;;;;;-2.95;100.00;101380.50;5054311;28;21004;-77
2024/01/11 00:06:49;;;;;;;29.07;22.90;;;;;;;-2.92;100.00;101379.81;5049392;28;20229;-78
2024/01/11 00:09:15;;;;;;;28.67;22.80;;;;;;;-3.04;100.00;101382.47;5050863;28;20198;-76
2024/01/11 00:11:40;;;;;;;33.70;23.73;;;;;;;-3.09;100.00;101377.06;5051813;28;20214;-77
2024/01/11 00:14:05;;;;;;;32.23;23.00;;;;;;;-3.02;100.00;101382.53;5051166;28;20206;-78
2024/01/11 00:16:31;;;;;;;33.20;24.80;;;;;;;-2.89;100.00;101390.13;5053109;28;20636;-76
2024/01/11 00:18:56;;;;;;;30.87;23.00;;;;;;;-2.98;100.00;101385.38;5052870;28;20216;-76
2024/01/11 00:21:21;;;;;;;31.90;23.87;;;;;;;-3.00;100.00;101391.97;5048476;28;20187;-76
2024/01/11 00:23:46;;;;;;;29.20;22.90;;;;;;;-3.09;100.00;101391.41;5048742;28;20175;-76
2024/01/11 00:26:12;;;;;;;33.27;23.50;;;;;;;-3.11;100.00;101387.88;5053555;28;20617;-76
2024/01/11 00:28:38;;;;;;;31.00;23.03;;;;;;;-3.08;100.00;101378.81;5051398;28;20199;-77
2024/01/11 00:31:03;;;;;;;31.23;23.43;;;;;;;-3.22;100.00;101384.66;5045500;28;20229;-76
2024/01/11 00:33:28;;;;;;;31.23;23.93;;;;;;;-3.08;100.00;101383.88;5048563;28;20200;-77
2024/01/11 00:35:54;;;;;;;31.60;24.47;;;;;;;-3.16;100.00;101382.53;5049045;28;20190;-77
2024/01/11 00:38:20;;;;;;;31.13;23.93;;;;;;;-3.17;100.00;101382.41;5051088;28;20206;-77
2024/01/11 00:40:45;;;;;;;31.53;24.33;;;;;;;-3.17;100.00;101378.25;5047712;28;20236;-76
2024/01/11 00:43:10;;;;;;;30.90;23.97;;;;;;;-3.19;100.00;101379.81;5049043;28;20194;-76
2024/01/11 00:45:36;;;;;;;33.80;24.60;;;;;;;-3.17;100.00;101387.47;5058400;28;20185;-77
2024/01/11 00:48:02;;;;;;;35.23;24.10;;;;;;;-3.41;100.00;101375.00;5048875;28;20225;-76
2024/01/11 00:50:27;;;;;;;31.50;24.73;;;;;;;-3.25;100.00;101384.47;5052459;28;20186;-76
2024/01/11 00:52:53;;;;;;;34.87;24.27;;;;;;;-3.44;100.00;101374.78;5048946;28;20655;-76
2024/01/11 00:55:18;;;;;;;32.27;24.10;;;;;;;-3.37;100.00;101382.88;5046407;28;20679;-79
2024/01/11 00:57:43;;;;;;;33.20;24.43;;;;;;;-3.39;100.00;101386.09;5047854;28;20210;-77
2024/01/11 01:00:13;;;;;;;35.27;25.17;;;;;;;-3.32;100.00;101383.19;5050670;28;20183;-78
2024/01/11 01:02:39;;;;;;;32.97;25.07;;;;;;;-3.43;100.00;101379.97;5051442;28;20187;-76
2024/01/11 01:05:04;;;;;;;31.37;24.37;;;;;;;-3.58;100.00;101381.50;5044685;28;20269;-77
2024/01/11 01:07:30;;;;;;;35.07;24.40;;;;;;;-3.33;100.00;101386.53;5054886;28;20197;-76
2024/01/11 01:09:55;;;;;;;35.03;25.40;;;;;;;-3.34;100.00;101383.88;5052839;28;20791;-77
2024/01/11 01:12:20;;;;;;;34.70;26.10;;;;;;;-3.42;100.00;101390.97;5052065;28;20182;-77
2024/01/11 01:14:45;;;;;;;33.60;24.77;;;;;;;-3.41;100.00;101387.66;5055768;28;20189;-76
2024/01/11 01:17:11;;;;;;;35.57;26.17;;;;;;;-3.43;100.00;101377.44;5047333;28;20206;-76
2024/01/11 01:19:36;;;;;;;33.03;24.60;;;;;;;-3.39;100.00;101376.84;5051074;28;20201;-77
2024/01/11 01:22:01;;;;;;;34.27;25.27;;;;;;;-3.37;100.00;101385.41;5044268;28;20878;-76
2024/01/11 01:24:27;;;;;;;32.67;25.70;;;;;;;-3.38;100.00;101385.34;5050199;28;20197;-77
2024/01/11 01:26:52;;;;;;;29.47;22.93;;;;;;;-3.41;100.00;101378.44;5045279;28;20210;-76
2024/01/11 01:29:17;;;;;;;33.50;24.97;;;;;;;-3.38;100.00;101385.34;5056745;28;20216;-76
2024/01/11 01:31:43;;;;;;;31.97;24.80;;;;;;;-3.45;100.00;101385.69;5048549;28;20190;-77
2024/01/11 01:34:08;;;;;;;35.40;25.13;;;;;;;-3.44;100.00;101393.41;5048386;28;20187;-76
2024/01/11 01:36:33;;;;;;;34.63;24.93;;;;;;;-3.47;100.00;101383.06;5050087;28;20183;-76
2024/01/11 01:38:59;;;;;;;34.80;24.17;;;;;;;-3.42;100.00;101384.25;5066295;28;20256;-76
2024/01/11 01:41:24;;;;;;;34.97;24.73;;;;;;;-3.43;100.00;101395.16;5049581;28;20595;-76
2024/01/11 01:43:49;;;;;;;39.23;25.87;;;;;;;-3.44;100.00;101405.16;5061373;28;20182;-76
2024/01/11 01:46:22;;;;;;;33.80;25.33;;;;;;;-3.57;100.00;101396.78;5059951;28;20550;-77
2024/01/11 01:48:47;;;;;;;34.13;25.30;;;;;;;-3.52;100.00;101400.50;5051301;28;21159;-77
2024/01/11 01:51:12;;;;;;;34.80;23.90;;;;;;;-3.52;100.00;101407.19;5049465;28;20205;-76
2024/01/11 01:53:38;;;;;;;31.63;25.10;;;;;;;-3.48;100.00;101414.22;5058098;28;20193;-76
2024/01/11 01:56:05;;;;;;;32.03;23.70;;;;;;;-3.55;100.00;101407.88;5049496;28;20194;-76
2024/01/11 01:58:31;;;;;;;32.33;25.07;;;;;;;-3.49;100.00;101421.72;5047865;28;20249;-76
2024/01/11 02:00:57;;;;;;;30.80;24.27;;;;;;;-3.62;100.00;101422.56;5053422;28;20651;-76
2024/01/11 02:03:27;;;;;;;34.50;25.37;;;;;;;-3.57;100.00;101418.69;5054269;28;20234;-76
2024/01/11 02:05:53;;;;;;;37.50;26.93;;;;;;;-3.59;100.00;101417.69;5048236;28;20405;-77
2024/01/11 02:08:22;;;;;;;35.10;24.80;;;;;;;-3.57;100.00;101418.69;5048538;28;20198;-76
2024/01/11 02:10:47;;;;;;;38.17;25.90;;;;;;;-3.58;100.00;101415.25;5053163;28;20206;-75
2024/01/11 02:13:13;;;;;;;35.70;25.30;;;;;;;-3.60;100.00;101411.75;5051926;28;20631;-75
2024/01/11 02:15:39;;;;;;;31.47;24.80;;;;;;;-3.56;100.00;101406.13;5053200;28;20324;-75
2024/01/11 02:18:04;;;;;;;36.57;26.50;;;;;;;-3.68;100.00;101415.44;5055946;28;20221;-76
2024/01/11 02:20:30;;;;;;;33.17;24.70;;;;;;;-3.71;100.00;101411.06;5050198;28;20233;-75
2024/01/11 02:23:03;;;;;;;34.20;26.77;;;;;;;-3.72;100.00;101414.34;5056357;28;20193;-76
2024/01/11 02:25:28;;;;;;;32.93;24.73;;;;;;;-3.62;100.00;101408.22;5052516;28;21386;-76
2024/01/11 02:27:54;;;;;;;36.07;24.93;;;;;;;-3.70;100.00;101412.78;5051274;28;20347;-76
2024/01/11 02:30:19;;;;;;;35.63;25.77;;;;;;;-3.67;100.00;101409.59;5051924;28;20198;-76
2024/01/11 02:32:46;;;;;;;36.53;25.60;;;;;;;-3.66;100.00;101416.41;5047200;28;20647;-76
2024/01/11 02:35:13;;;;;;;32.57;24.77;;;;;;;-3.73;100.00;101410.06;5051906;28;20190;-75
2024/01/11 02:37:39;;;;;;;36.20;26.43;;;;;;;-3.76;100.00;101404.78;5048056;28;20219;-78
2024/01/11 02:40:07;;;;;;;33.83;25.27;;;;;;;-3.77;100.00;101408.09;5055128;28;20186;-76
2024/01/11 02:42:33;;;;;;;34.87;25.47;;;;;;;-3.80;100.00;101404.50;5053510;28;20263;-75
2024/01/11 02:44:58;;;;;;;33.97;26.00;;;;;;;-3.88;100.00;101416.63;5047622;28;20655;-76
2024/01/11 02:47:24;;;;;;;35.30;26.67;;;;;;;-3.87;100.00;101410.78;5054223;28;20289;-76
2024/01/11 02:49:49;;;;;;;36.27;26.27;;;;;;;-3.85;100.00;101416.81;5049981;28;20191;-76
2024/01/11 02:52:15;;;;;;;34.17;24.60;;;;;;;-3.88;100.00;101409.91;5052510;28;20178;-75
2024/01/11 02:54:40;;;;;;;37.67;26.93;;;;;;;-3.96;100.00;101403.47;5052533;28;20179;-75
2024/01/11 02:57:05;;;;;;;35.33;24.77;;;;;;;-3.88;100.00;101411.56;5049943;28;20304;-76
2024/01/11 02:59:31;;;;;;;36.33;25.17;;;;;;;-3.93;100.00;101410.38;5051527;28;20194;-75
2024/01/11 03:01:56;;;;;;;34.73;24.60;;;;;;;-3.93;100.00;101411.22;5047268;28;20190;-77
2024/01/11 03:04:21;;;;;;;34.53;25.63;;;;;;;-3.98;100.00;101408.38;5049708;28;20190;-76
2024/01/11 03:06:47;;;;;;;32.17;24.50;;;;;;;-3.86;100.00;101397.38;5067624;28;20201;-76
2024/01/11 03:09:12;;;;;;;34.67;25.37;;;;;;;-3.89;100.00;101403.09;5064407;28;20413;-75
2024/01/11 03:11:37;;;;;;;34.77;25.73;;;;;;;-3.87;100.00;101400.69;5062212;28;20181;-76
2024/01/11 03:14:03;;;;;;;33.97;25.53;;;;;;;-3.96;100.00;101398.41;5059063;28;20182;-76
2024/01/11 03:16:29;;;;;;;36.47;25.33;;;;;;;-3.88;100.00;101388.81;5063381;28;20617;-75
2024/01/11 03:18:54;;;;;;;36.17;25.37;;;;;;;-3.89;100.00;101389.56;5061552;28;20174;-76
2024/01/11 03:21:20;;;;;;;35.13;26.27;;;;;;;-3.88;100.00;101383.75;5047420;28;20774;-75
2024/01/11 03:23:45;;;;;;;35.10;26.77;;;;;;;-3.87;100.00;101383.84;5044860;28;20670;-75
2024/01/11 03:26:17;;;;;;;35.93;27.07;;;;;;;-3.89;100.00;101387.03;5048413;28;20178;-76
2024/01/11 03:28:43;;;;;;;33.93;25.77;;;;;;;-3.92;100.00;101386.81;5049992;28;20205;-75
2024/01/11 03:31:09;;;;;;;34.07;25.47;;;;;;;-3.91;100.00;101386.06;5045653;28;20178;-78
2024/01/11 03:33:35;;;;;;;33.37;25.50;;;;;;;-3.96;100.00;101387.38;5052495;28;20186;-76
2024/01/11 03:36:06;;;;;;;37.37;26.53;;;;;;;-3.98;100.00;101383.09;5055288;28;20191;-76
2024/01/11 03:38:31;;;;;;;35.73;26.50;;;;;;;-3.97;100.00;101384.00;5047231;28;20751;-76
2024/01/11 03:40:57;;;;;;;38.03;27.47;;;;;;;-3.95;100.00;101381.56;5051927;28;20179;-77
2024/01/11 03:43:22;;;;;;;31.87;25.33;;;;;;;-4.01;100.00;101380.34;5051234;28;20198;-76
2024/01/11 03:45:47;;;;;;;38.17;26.87;;;;;;;-3.96;100.00;101387.38;5053523;28;20189;-75
2024/01/11 03:48:13;;;;;;;33.37;25.63;;;;;;;-4.02;100.00;101390.38;5047148;28;20194;-76
2024/01/11 03:50:38;;;;;;;35.27;25.97;;;;;;;-4.02;100.00;101385.31;5047005;28;20193;-76
2024/01/11 03:53:04;;;;;;;38.07;26.93;;;;;;;-3.86;100.00;101394.84;5046166;28;20177;-75
2024/01/11 03:55:29;;;;;;;36.93;25.90;;;;;;;-3.96;100.00;101392.44;5048023;28;20927;-76
2024/01/11 03:57:54;;;;;;;33.93;27.43;;;;;;;-3.93;100.00;101380.88;5049999;28;20221;-76
2024/01/11 04:00:20;;;;;;;34.53;26.00;;;;;;;-3.95;100.00;101377.41;5060232;28;20555;-76
2024/01/11 04:02:46;;;;;;;43.50;28.63;;;;;;;-3.96;100.00;101394.97;5058048;28;20273;-74
2024/01/11 04:05:11;;;;;;;37.73;27.37;;;;;;;-3.98;100.00;101372.13;5056989;28;20684;-75
2024/01/11 04:07:36;;;;;;;37.63;27.53;;;;;;;-3.96;100.00;101379.81;5057720;28;20739;-76
2024/01/11 04:10:02;;;;;;;37.43;27.80;;;;;;;-3.99;100.00;101391.47;5050008;28;20194;-76
2024/01/11 04:12:27;;;;;;;36.97;28.00;;;;;;;-4.04;100.00;101372.59;5042332;28;20210;-76
2024/01/11 04:14:52;;;;;;;37.57;27.87;;;;;;;-3.98;100.00;101382.25;5062033;28;20231;-76
2024/01/11 04:17:17;;;;;;;35.40;26.97;;;;;;;-4.04;100.00;101382.72;5054004;28;20210;-75
2024/01/11 04:19:43;;;;;;;37.10;27.17;;;;;;;-4.09;100.00;101378.13;5055192;28;20274;-76
2024/01/11 04:22:08;;;;;;;36.43;27.73;;;;;;;-3.95;100.00;101379.03;5044953;28;20256;-75
2024/01/11 04:24:33;;;;;;;39.23;28.47;;;;;;;-3.95;100.00;101374.88;5049633;28;20252;-76
2024/01/11 04:26:59;;;;;;;35.97;27.57;;;;;;;-3.94;100.00;101378.25;5049699;28;20707;-75
2024/01/11 04:29:24;;;;;;;35.57;25.97;;;;;;;-3.96;100.00;101370.59;5050275;28;20269;-75
2024/01/11 04:31:49;;;;;;;35.87;27.33;;;;;;;-3.87;100.00;101381.31;5050433;28;20667;-76
2024/01/11 04:34:15;;;;;;;36.57;26.20;;;;;;;-3.92;100.00;101372.53;5043653;28;20242;-77
2024/01/11 04:36:40;;;;;;;38.30;27.60;;;;;;;-4.01;100.00;101372.78;5050978;28;20189;-75
2024/01/11 04:39:07;;;;;;;35.77;26.73;;;;;;;-3.98;100.00;101377.19;5046345;28;20178;-77
2024/01/11 04:41:35;;;;;;;36.23;26.23;;;;;;;-4.04;100.00;101377.66;5048773;28;20270;-75
2024/01/11 04:44:00;;;;;;;35.63;27.13;;;;;;;-4.08;100.00;101380.72;5046688;28;20209;-75
2024/01/11 04:46:25;;;;;;;35.43;26.83;;;;;;;-4.07;100.00;101392.59;5053765;28;20218;-75
2024/01/11 04:48:51;;;;;;;35.70;27.10;;;;;;;-4.08;100.00;101388.31;5048773;28;20217;-75
2024/01/11 04:51:17;;;;;;;33.90;26.07;;;;;;;-4.14;100.00;101388.78;5051500;28;20730;-75
2024/01/11 04:53:44;;;;;;;37.77;27.37;;;;;;;-4.13;100.00;101382.97;5045530;28;20425;-75
2024/01/11 04:56:11;;;;;;;36.00;26.70;;;;;;;-4.08;100.00;101388.31;5054824;28;20240;-76
2024/01/11 04:58:39;;;;;;;34.17;25.87;;;;;;;-4.11;100.00;101379.66;5051193;28;20210;-75
2024/01/11 05:01:05;;;;;;;38.37;26.97;;;;;;;-4.22;100.00;101389.03;5048038;28;20191;-75
2024/01/11 05:03:31;;;;;;;36.73;27.23;;;;;;;-4.18;100.00;101386.81;5055474;28;20208;-77
2024/01/11 05:05:57;;;;;;;34.23;26.60;;;;;;;-4.10;100.00;101384.81;5052215;28;20673;-75
2024/01/11 05:08:22;;;;;;;37.00;26.53;;;;;;;-4.15;100.00;101388.66;5047173;28;20203;-75
2024/01/11 05:10:48;;;;;;;38.67;27.30;;;;;;;-4.14;100.00;101393.84;5054271;28;20908;-76
2024/01/11 05:13:13;;;;;;;37.73;27.13;;;;;;;-4.13;100.00;101387.13;5062412;28;20190;-77
2024/01/11 05:15:38;;;;;;;36.93;27.63;;;;;;;-4.13;100.00;101388.00;5056033;28;20187;-75
2024/01/11 05:18:04;;;;;;;33.77;25.63;;;;;;;-4.18;100.00;101399.44;5053536;28;20203;-75
2024/01/11 05:20:29;;;;;;;37.03;26.57;;;;;;;-4.22;100.00;101405.06;5050707;28;20190;-75
2024/01/11 05:22:55;;;;;;;36.10;27.27;;;;;;;-4.14;100.00;101400.53;5047924;28;20850;-75
2024/01/11 05:25:20;;;;;;;37.53;27.80;;;;;;;-4.17;100.00;101402.88;5051778;28;20239;-76
2024/01/11 05:27:45;;;;;;;38.90;27.77;;;;;;;-4.14;100.00;101405.59;5049142;28;20854;-75
2024/01/11 05:30:11;;;;;;;35.67;27.43;;;;;;;-4.11;100.00;101407.47;5053879;28;20266;-75
2024/01/11 05:32:36;;;;;;;35.43;27.33;;;;;;;-4.18;100.00;101407.03;5051967;28;20248;-76
2024/01/11 05:35:01;;;;;;;38.53;27.47;;;;;;;-4.23;100.00;101408.34;5048312;28;20270;-75
2024/01/11 05:37:27;;;;;;;36.70;28.47;;;;;;;-4.22;100.00;101424.41;5054018;28;20215;-77
2024/01/11 05:39:54;;;;;;;37.97;28.03;;;;;;;-4.11;100.00;101420.97;5051044;28;20191;-77
2024/01/11 05:42:19;;;;;;;37.07;26.63;;;;;;;-4.19;100.00;101427.16;5049572;28;20197;-76
2024/01/11 05:44:44;;;;;;;38.40;27.47;;;;;;;-4.21;100.00;101424.50;5054255;28;20577;-76
2024/01/11 05:47:10;;;;;;;38.80;27.53;;;;;;;-4.15;100.00;101430.00;5051740;28;20286;-76
2024/01/11 05:49:35;;;;;;;36.40;26.67;;;;;;;-4.24;100.00;101425.97;5053305;28;20212;-76
2024/01/11 05:52:00;;;;;;;40.77;27.90;;;;;;;-4.19;100.00;101433.09;5050214;28;20175;-76
2024/01/11 05:54:28;;;;;;;35.17;27.03;;;;;;;-4.17;100.00;101428.16;5050843;28;20245;-75
2024/01/11 05:56:56;;;;;;;37.33;27.17;;;;;;;-4.14;100.00;101433.41;5056555;28;20586;-77
2024/01/11 05:59:21;;;;;;;35.17;27.10;;;;;;;-4.20;100.00;101422.88;5058885;28;20692;-76
2024/01/11 06:01:46;;;;;;;34.93;27.40;;;;;;;-4.27;100.00;101439.28;5054672;28;20178;-75
2024/01/11 06:04:12;;;;;;;38.87;28.10;;;;;;;-4.16;100.00;101428.25;5051197;28;20198;-77
2024/01/11 06:06:37;;;;;;;37.13;26.23;;;;;;;-4.13;100.00;101422.50;5048818;28;20700;-76
2024/01/11 06:09:04;;;;;;;39.90;28.23;;;;;;;-4.22;100.00;101430.34;5049994;28;20259;-76
2024/01/11 06:11:30;;;;;;;35.87;26.90;;;;;;;-4.19;100.00;101422.97;5057882;28;20244;-75
2024/01/11 06:13:55;;;;;;;38.23;26.83;;;;;;;-4.18;100.00;101421.34;5049004;28;20802;-75
2024/01/11 06:16:20;;;;;;;36.83;27.60;;;;;;;-4.26;100.00;101412.31;5050311;28;20654;-76
2024/01/11 06:18:46;;;;;;;37.20;27.20;;;;;;;-4.29;100.00;101431.56;5054242;28;20232;-76
2024/01/11 06:21:11;;;;;;;33.70;26.60;;;;;;;-4.32;100.00;101425.41;5049831;28;20554;-76
2024/01/11 06:23:36;;;;;;;36.33;27.10;;;;;;;-4.20;100.00;101436.38;5053906;28;20193;-74
2024/01/11 06:26:02;;;;;;;36.37;26.23;;;;;;;-4.22;100.00;101432.00;5052466;28;20200;-76
2024/01/11 06:28:28;;;;;;;38.43;28.13;;;;;;;-4.26;100.00;101442.66;5050063;28;20205;-76
2024/01/11 06:30:53;;;;;;;36.50;27.43;;;;;;;-4.31;100.00;101425.50;5057243;28;20185;-76
2024/01/11 06:33:20;;;;;;;35.33;26.97;;;;;;;-4.32;100.00;101438.06;5055228;28;20186;-76
2024/01/11 06:35:45;;;;;;;38.53;27.47;;;;;;;-4.32;100.00;101440.59;5060357;28;20190;-76
2024/01/11 06:38:10;;;;;;;37.63;28.43;;;;;;;-4.35;100.00;101440.38;5045833;28;20201;-77
2024/01/11 06:40:36;;;;;;;36.57;28.00;;;;;;;-4.34;100.00;101439.59;5044980;28;20699;-77
2024/01/11 06:43:01;;;;;;;37.40;27.60;;;;;;;-4.35;100.00;101441.25;5049419;28;20188;-76
2024/01/11 06:45:27;;;;;;;38.07;28.40;;;;;;;-4.37;100.00;101446.97;5051567;28;20181;-77
2024/01/11 06:47:52;;;;;;;37.53;27.70;;;;;;;-4.38;100.00;101438.50;5051539;28;20212;-76
2024/01/11 06:50:18;;;;;;;37.60;28.80;;;;;;;-4.33;100.00;101443.88;5055785;28;20186;-77
2024/01/11 06:52:44;;;;;;;36.40;28.20;;;;;;;-4.34;100.00;101448.06;5043400;28;20617;-77
2024/01/11 06:55:10;;;;;;;36.27;27.37;;;;;;;-4.41;100.00;101453.44;5054499;28;20936;-78
2024/01/11 06:57:36;;;;;;;36.83;27.70;;;;;;;-4.33;100.00;101457.41;5051923;28;20996;-76
2024/01/11 07:00:02;;;;;;;35.17;27.33;;;;;;;-4.33;100.00;101461.56;5052653;28;20278;-76
2024/01/11 07:02:27;;;;;;;35.70;27.90;;;;;;;-4.35;100.00;101471.59;5055212;28;20198;-77
2024/01/11 07:04:53;;;;;;;38.63;27.67;;;;;;;-4.32;100.00;101466.75;5046882;28;20229;-76
2024/01/11 07:07:18;;;;;;;35.87;27.13;;;;;;;-4.35;100.00;101475.75;5045124;28;20231;-77
2024/01/11 07:09:44;;;;;;;35.60;27.00;;;;;;;-4.28;100.00;101473.75;5051649;28;20191;-77
2024/01/11 07:12:09;;;;;;;35.83;27.77;;;;;;;-4.33;100.00;101480.16;5045618;28;20269;-76
2024/01/11 07:14:35;;;;;;;37.73;27.77;;;;;;;-4.36;100.00;101484.09;5044660;28;20211;-76
2024/01/11 07:17:01;;;;;;;38.77;28.63;;;;;;;-4.27;100.00;101479.72;5050727;28;20282;-76
2024/01/11 07:19:26;;;;;;;37.57;27.50;;;;;;;-4.31;100.00;101482.78;5051903;28;20209;-76
2024/01/11 07:21:51;;;;;;;36.73;28.27;;;;;;;-4.35;100.00;101488.38;5046907;28;20186;-78
2024/01/11 07:24:18;;;;;;;36.87;27.13;;;;;;;-4.46;100.00;101495.19;5052060;28;20189;-76
2024/01/11 07:26:43;;;;;;;36.73;27.17;;;;;;;-4.41;100.00;101498.06;5044291;28;20197;-76
2024/01/11 07:29:09;;;;;;;35.93;27.53;;;;;;;-4.36;100.00;101494.22;5054418;28;20185;-77
2024/01/11 07:31:34;;;;;;;35.67;27.77;;;;;;;-4.36;100.00;101497.63;5045718;28;20818;-76
2024/01/11 07:33:59;;;;;;;37.67;26.23;;;;;;;-4.45;100.00;101496.94;5052172;28;20190;-76
2024/01/11 07:36:25;;;;;;;35.53;26.83;;;;;;;-4.43;100.00;101490.38;5040734;28;20945;-77
2024/01/11 07:38:50;;;;;;;34.70;27.73;;;;;;;-4.36;100.00;101504.31;5044930;28;20583;-76
2024/01/11 07:41:16;;;;;;;38.53;26.83;;;;;;;-4.45;100.00;101519.69;5047074;28;20178;-76
2024/01/11 07:43:41;;;;;;;35.87;26.87;;;;;;;-4.41;100.00;101526.75;5044027;28;20293;-78
2024/01/11 07:46:07;;;;;;;37.77;26.87;;;;;;;-4.27;100.00;101520.16;5042049;28;20605;-76
2024/01/11 07:48:33;;;;;;;35.40;27.30;;;;;;;-4.39;100.00;101522.69;5046479;28;20210;-76
2024/01/11 07:50:59;;;;;;;38.13;26.63;;;;;;;-4.42;100.00;101514.00;5044488;28;20189;-76
2024/01/11 07:53:25;;;;;;;38.07;28.20;;;;;;;-4.35;100.00;101527.19;5041693;28;20324;-75
2024/01/11 07:55:51;;;;;;;36.70;26.93;;;;;;;-4.35;100.00;101531.34;5055403;28;20185;-75
2024/01/11 07:58:16;;;;;;;36.37;26.63;;;;;;;-4.25;100.00;101536.31;5046898;28;20233;-77
2024/01/11 08:00:41;;;;;;;37.37;26.47;;;;;;;-4.35;100.00;101538.94;5049908;28;20591;-76
2024/01/11 08:03:08;;;;;;;34.97;26.77;;;;;;;-4.30;100.00;101550.25;5045902;28;20182;-76
2024/01/11 08:05:33;;;;;;;35.07;26.87;;;;;;;-4.22;100.00;101544.09;5044402;28;20197;-76
2024/01/11 08:08:01;;;;;;;36.77;27.83;;;;;;;-4.22;100.00;101548.28;5049792;28;20197;-76
2024/01/11 08:10:27;;;;;;;37.27;27.60;;;;;;;-4.17;100.00;101557.94;5045751;28;20678;-77
2024/01/11 08:12:52;;;;;;;36.47;26.20;;;;;;;-4.09;100.00;101558.50;5048985;28;20197;-77
2024/01/11 08:15:17;;;;;;;36.70;26.43;;;;;;;-4.02;100.00;101569.91;5049501;28;20195;-76
2024/01/11 08:17:46;;;;;;;33.60;24.97;;;;;;;-4.03;100.00;101575.75;5044202;28;20296;-78
2024/01/11 08:20:11;;;;;;;36.60;28.20;;;;;;;-4.05;100.00;101582.34;5050468;28;20178;-75
2024/01/11 08:22:39;;;;;;;36.67;27.30;;;;;;;-4.09;100.00;101573.66;5048403;28;20865;-76
2024/01/11 08:25:05;;;;;;;35.57;26.10;;;;;;;-3.95;100.00;101576.28;5051998;28;20201;-77
2024/01/11 08:27:31;;;;;;;35.67;26.63;;;;;;;-3.96;100.00;101575.44;5053355;28;20201;-77
2024/01/11 08:29:57;;;;;;;33.03;24.90;;;;;;;-3.98;100.00;101574.44;5046833;28;20293;-76
2024/01/11 08:32:22;;;;;;;37.07;26.60;;;;;;;-3.93;100.00;101569.69;5048505;28;20621;-76
2024/01/11 08:34:47;;;;;;;36.13;27.03;;;;;;;-3.81;100.00;101565.50;5047050;28;20560;-76
2024/01/11 08:37:14;;;;;;;34.00;26.27;;;;;;;-3.76;100.00;101555.69;5045733;28;20228;-77
2024/01/11 08:39:40;;;;;;;35.07;26.53;;;;;;;-3.74;100.00;101556.66;5048058;28;20559;-76
2024/01/11 08:42:05;;;;;;;33.53;26.57;;;;;;;-3.72;100.00;101557.66;5057585;28;20182;-76
2024/01/11 08:44:30;;;;;;;32.53;26.50;;;;;;;-3.74;100.00;101551.63;5047585;28;20182;-76
2024/01/11 08:46:57;;;;;;;33.23;26.37;;;;;;;-3.76;100.00;101558.22;5046989;28;20203;-76
2024/01/11 08:49:22;;;;;;;38.33;28.63;;;;;;;-3.83;100.00;101556.91;5051673;28;20188;-77
2024/01/11 08:51:48;;;;;;;36.60;27.57;;;;;;;-3.68;100.00;101559.66;5047628;28;20185;-78
2024/01/11 08:54:16;;;;;;;35.87;27.93;;;;;;;-3.57;100.00;101570.50;5046024;28;20202;-77
2024/01/11 08:56:41;;;;;;;36.40;26.43;;;;;;;-3.55;100.00;101564.78;5048357;28;20638;-76
2024/01/11 08:59:08;;;;;;;34.20;26.53;;;;;;;-3.47;100.00;101564.41;5053311;28;20265;-76
2024/01/11 09:01:35;;;;;;;37.87;29.00;;;;;;;-3.41;100.00;101555.59;5044190;28;20608;-76
2024/01/11 09:04:01;;;;;;;42.20;29.77;;;;;;;-3.32;100.00;101554.47;5045824;28;20190;-77
2024/01/11 09:06:26;;;;;;;35.97;27.80;;;;;;;-3.26;100.00;101572.63;5046515;28;20186;-76
2024/01/11 09:08:52;;;;;;;37.07;29.13;;;;;;;-3.22;100.00;101566.97;5047686;28;20297;-76
2024/01/11 09:11:17;;;;;;;39.00;30.20;;;;;;;-3.18;100.00;101557.94;5059013;28;20178;-76
2024/01/11 09:13:42;;;;;;;39.80;29.33;;;;;;;-3.23;100.00;101560.13;5049798;28;20543;-77
2024/01/11 09:16:09;;;;;;;38.13;30.07;;;;;;;-3.21;100.00;101561.13;5061530;28;20174;-77
2024/01/11 09:18:35;;;;;;;39.03;29.77;;;;;;;-3.17;100.00;101557.13;5047414;28;20206;-76
2024/01/11 09:21:00;;;;;;;37.97;30.17;;;;;;;-3.12;100.00;101548.19;5059625;28;20194;-77
2024/01/11 09:23:26;;;;;;;40.03;29.57;;;;;;;-3.10;100.00;101561.84;5050329;28;20190;-76
2024/01/11 09:25:51;;;;;;;41.37;30.53;;;;;;;-3.12;100.00;101568.47;5049963;28;20194;-76
2024/01/11 09:28:16;;;;;;;38.63;29.10;;;;;;;-3.11;100.00;101561.00;5048475;28;20206;-76
2024/01/11 09:30:42;;;;;;;37.50;29.77;;;;;;;-3.03;100.00;101568.19;5048866;28;20244;-77
2024/01/11 09:33:07;;;;;;;39.40;29.97;;;;;;;-2.99;100.00;101567.66;5049444;28;20294;-76
2024/01/11 09:35:32;;;;;;;41.83;30.73;;;;;;;-2.87;100.00;101565.91;5045828;28;20317;-76
2024/01/11 09:37:57;;;;;;;38.00;29.93;;;;;;;-2.94;100.00;101561.22;5050380;28;20944;-75
2024/01/11 09:40:23;;;;;;;34.23;27.23;;;;;;;-2.92;100.00;101562.19;5048874;28;20257;-76
2024/01/11 09:42:49;;;;;;;38.20;28.97;;;;;;;-2.80;100.00;101567.19;5053709;28;20183;-75
2024/01/11 09:45:16;;;;;;;38.47;29.20;;;;;;;-2.76;100.00;101582.69;5049076;28;20879;-76
2024/01/11 09:47:44;;;;;;;39.90;29.87;;;;;;;-2.71;100.00;101579.59;5052924;28;20202;-76
2024/01/11 09:50:10;;;;;;;38.03;29.63;;;;;;;-2.63;100.00;101589.47;5051354;28;20191;-77
2024/01/11 09:52:37;;;;;;;37.63;30.60;;;;;;;-2.65;100.00;101588.47;5049649;28;20242;-77
2024/01/11 09:55:03;;;;;;;38.37;30.23;;;;;;;-2.57;100.00;101578.84;5052028;28;20210;-76
2024/01/11 09:57:30;;;;;;;36.33;29.43;;;;;;;-2.54;100.00;101581.59;5045591;28;20861;-76
2024/01/11 09:59:57;;;;;;;34.97;28.23;;;;;;;-2.47;100.00;101575.25;5053608;28;20244;-76
2024/01/11 10:02:25;;;;;;;38.67;29.73;;;;;;;-2.47;100.00;101573.59;5051423;28;20232;-77
2024/01/11 10:04:52;;;;;;;41.90;31.00;;;;;;;-2.50;100.00;101575.94;5047767;28;20179;-77
2024/01/11 10:07:20;;;;;;;36.20;28.70;;;;;;;-2.37;100.00;101574.19;5047684;28;20217;-76
2024/01/11 10:09:46;;;;;;;37.43;29.57;;;;;;;-2.34;100.00;101571.84;5051582;28;20191;-76
2024/01/11 10:12:11;;;;;;;38.10;28.67;;;;;;;-2.20;100.00;101572.72;5046137;28;20184;-77
2024/01/11 10:14:36;;;;;;;37.50;30.63;;;;;;;-2.08;100.00;101560.81;5049153;28;20265;-76
2024/01/11 10:17:02;;;;;;;36.00;29.83;;;;;;;-2.09;100.00;101560.75;5046807;28;20305;-76
2024/01/11 10:19:28;;;;;;;39.10;30.77;;;;;;;-2.09;100.00;101548.91;5046388;28;20191;-78
2024/01/11 10:21:53;;;;;;;39.83;31.27;;;;;;;-2.13;100.00;101552.06;5046389;28;20218;-76
2024/01/11 10:24:20;;;;;;;39.97;31.17;;;;;;;-2.09;100.00;101540.44;5046322;28;20242;-75
2024/01/11 10:26:45;;;;;;;40.03;31.20;;;;;;;-1.98;100.00;101541.97;5044280;28;20192;-78
2024/01/11 10:29:12;;;;;;;37.53;30.77;;;;;;;-1.92;100.00;101538.94;5049953;28;20194;-76
2024/01/11 10:31:38;;;;;;;38.50;30.73;;;;;;;-1.84;100.00;101533.56;5048343;28;20251;-76
2024/01/11 10:34:04;;;;;;;38.57;30.70;;;;;;;-1.75;100.00;101534.94;5047169;28;20558;-75
2024/01/11 10:36:32;;;;;;;38.97;31.30;;;;;;;-1.64;100.00;101538.09;5048230;28;20180;-76
2024/01/11 10:39:01;;;;;;;38.23;31.90;;;;;;;-1.65;100.00;101537.25;5052016;28;20291;-76
2024/01/11 10:41:30;;;;;;;39.27;31.47;;;;;;;-1.55;100.00;101531.06;5049262;28;20229;-76
2024/01/11 10:43:57;;;;;;;48.33;32.80;;;;;;;-1.56;100.00;101537.78;5049445;28;20549;-75
2024/01/11 10:46:25;;;;;;;42.23;31.87;;;;;;;-1.46;100.00;101530.75;5044778;28;20203;-76
2024/01/11 10:48:55;;;;;;;39.53;31.50;;;;;;;-1.42;99.90;101537.72;5050337;28;20198;-76
2024/01/11 10:51:24;;;;;;;40.00;31.63;;;;;;;-1.30;99.29;101535.94;5051206;28;20914;-75
2024/01/11 10:53:51;;;;;;;42.57;32.50;;;;;;;-1.27;99.75;101543.72;5048501;28;20179;-75
2024/01/11 10:56:16;;;;;;;38.87;31.60;;;;;;;-1.33;98.37;101539.94;5051961;28;20187;-76